createdAt,value
2017-06-29T00:02:05.453Z,16.80
2017-06-29T00:04:32.900Z,17.98
2017-06-29T00:07:00.342Z,16.33
2017-06-29T00:09:27.771Z,17.05
2017-06-29T00:11:55.224Z,17.75
2017-06-29T00:14:22.667Z,17.48
2017-06-29T00:16:50.898Z,17.70
2017-06-29T00:19:18.368Z,17.73
2017-06-29T00:21:45.806Z,17.75
2017-06-29T00:24:13.254Z,19.42
2017-06-29T00:26:40.832Z,17.37
2017-06-29T00:29:08.419Z,16.60
2017-06-29T00:31:36.699Z,17.98
2017-06-29T00:34:04.926Z,18.98
2017-06-29T00:36:32.361Z,19.10
2017-06-29T00:38:59.984Z,20.00
2017-06-29T00:41:27.539Z,19.00
2017-06-29T00:43:54.963Z,19.75
2017-06-29T00:46:22.534Z,19.23
2017-06-29T00:48:49.982Z,19.30
2017-06-29T00:51:17.472Z,19.50
2017-06-29T00:53:45.683Z,20.37
2017-06-29T00:56:13.169Z,20.17
2017-06-29T00:58:40.626Z,19.98
2017-06-29T01:01:08.083Z,20.92
2017-06-29T01:03:35.537Z,20.70
2017-06-29T01:06:03.021Z,21.67
2017-06-29T01:08:30.467Z,20.88
2017-06-29T01:10:57.924Z,21.45
2017-06-29T01:13:25.495Z,21.05
2017-06-29T01:15:53.026Z,21.03
2017-06-29T01:18:20.510Z,23.10
2017-06-29T01:20:48.051Z,22.20
2017-06-29T01:23:15.601Z,23.10
2017-06-29T01:25:43.083Z,23.90
2017-06-29T01:28:10.550Z,22.48
2017-06-29T01:30:38.762Z,22.27
2017-06-29T01:33:06.255Z,23.85
2017-06-29T01:35:33.800Z,24.35
2017-06-29T01:38:01.242Z,24.35
2017-06-29T01:40:28.726Z,24.77
2017-06-29T01:42:56.353Z,27.20
2017-06-29T01:45:23.818Z,27.40
2017-06-29T01:47:51.243Z,29.50
2017-06-29T01:50:18.715Z,30.02
2017-06-29T01:52:46.173Z,29.58
2017-06-29T01:55:13.658Z,30.60
2017-06-29T01:57:41.126Z,30.92
2017-06-29T02:00:08.562Z,30.13
2017-06-29T02:02:36.054Z,31.42
2017-06-29T02:05:03.499Z,29.30
2017-06-29T02:07:31.231Z,30.45
2017-06-29T02:09:58.646Z,31.48
2017-06-29T02:12:26.199Z,30.55
2017-06-29T02:14:54.423Z,31.58
2017-06-29T02:17:21.925Z,30.58
2017-06-29T02:19:50.127Z,30.27
2017-06-29T02:22:17.626Z,31.45
2017-06-29T02:24:45.187Z,30.20
2017-06-29T02:27:12.663Z,30.17
2017-06-29T02:29:40.210Z,30.60
2017-06-29T02:32:07.639Z,29.60
2017-06-29T02:34:35.083Z,31.02
2017-06-29T02:37:02.560Z,31.45
2017-06-29T02:39:30.067Z,31.55
2017-06-29T02:41:58.283Z,33.20
2017-06-29T02:44:25.779Z,32.30
2017-06-29T02:46:53.340Z,31.70
2017-06-29T02:49:20.795Z,31.87
2017-06-29T02:51:48.319Z,31.67
2017-06-29T02:54:15.760Z,33.88
2017-06-29T02:56:43.235Z,32.17
2017-06-29T02:59:10.724Z,34.03
2017-06-29T03:04:13.038Z,34.72
2017-06-29T03:06:40.495Z,34.78
2017-06-29T03:09:07.946Z,33.33
2017-06-29T03:11:35.546Z,34.13
2017-06-29T03:14:03.007Z,36.10
2017-06-29T03:16:30.463Z,34.22
2017-06-29T03:18:57.925Z,36.10
2017-06-29T03:21:25.405Z,35.63
2017-06-29T03:23:52.952Z,37.00
2017-06-29T03:26:20.493Z,36.90
2017-06-29T03:28:47.932Z,36.45
2017-06-29T03:31:15.383Z,36.67
2017-06-29T03:33:42.863Z,38.63
2017-06-29T03:36:10.315Z,37.55
2017-06-29T03:38:37.782Z,37.75
2017-06-29T03:41:05.337Z,37.45
2017-06-29T03:43:32.788Z,39.30
2017-06-29T03:46:00.247Z,36.90
2017-06-29T03:48:27.679Z,37.08
2017-06-29T03:50:55.162Z,38.65
2017-06-29T03:53:22.635Z,36.50
2017-06-29T03:55:50.100Z,37.42
2017-06-29T03:58:17.542Z,38.15
2017-06-29T04:00:45.006Z,36.40
2017-06-29T04:03:12.445Z,36.28
2017-06-29T04:05:39.903Z,36.20
2017-06-29T04:08:07.366Z,37.88
2017-06-29T04:10:34.810Z,38.63
2017-06-29T04:13:02.268Z,36.88
2017-06-29T04:15:29.904Z,35.58
2017-06-29T04:17:57.406Z,34.92
2017-06-29T04:20:24.842Z,35.35
2017-06-29T04:22:52.291Z,33.85
2017-06-29T04:25:19.724Z,33.90
2017-06-29T04:27:47.172Z,33.95
2017-06-29T04:30:14.623Z,35.42
2017-06-29T04:32:42.119Z,35.15
2017-06-29T04:35:09.609Z,35.70
2017-06-29T04:37:37.818Z,35.17
2017-06-29T04:40:05.279Z,35.47
2017-06-29T04:42:32.714Z,34.83
2017-06-29T04:45:00.214Z,34.50
2017-06-29T04:47:27.678Z,36.28
2017-06-29T04:49:55.127Z,35.20
2017-06-29T04:52:22.595Z,36.60
2017-06-29T04:54:50.035Z,38.63
2017-06-29T04:57:17.467Z,37.13
2017-06-29T04:59:44.967Z,38.33
2017-06-29T05:02:12.402Z,36.25
2017-06-29T05:04:39.961Z,36.40
2017-06-29T05:07:07.508Z,37.43
2017-06-29T05:09:34.954Z,35.92
2017-06-29T05:12:02.478Z,36.58
2017-06-29T05:14:30.703Z,36.47
2017-06-29T05:16:58.196Z,35.38
2017-06-29T05:19:25.650Z,35.05
2017-06-29T05:21:53.191Z,36.92
2017-06-29T05:24:20.657Z,35.65
2017-06-29T05:26:48.104Z,38.08
2017-06-29T05:29:15.637Z,37.93
2017-06-29T05:31:43.092Z,38.13
2017-06-29T05:34:10.551Z,35.80
2017-06-29T05:36:38.007Z,35.45
2017-06-29T05:39:05.751Z,35.60
2017-06-29T05:41:33.971Z,36.10
2017-06-29T05:44:01.410Z,34.83
2017-06-29T05:46:28.898Z,36.20
2017-06-29T05:48:56.373Z,37.72
2017-06-29T05:51:23.906Z,36.53
2017-06-29T05:53:51.408Z,35.20
2017-06-29T05:56:18.908Z,33.40
2017-06-29T05:58:46.392Z,35.28
2017-06-29T06:01:13.818Z,31.60
2017-06-29T06:03:41.303Z,32.85
2017-06-29T06:06:08.742Z,32.60
2017-06-29T06:08:36.251Z,33.60
2017-06-29T06:11:03.743Z,31.83
2017-06-29T06:13:31.191Z,30.92
2017-06-29T06:15:58.673Z,31.50
2017-06-29T06:18:26.115Z,31.05
2017-06-29T06:20:53.567Z,29.10
2017-06-29T06:23:21.027Z,29.55
2017-06-29T06:25:48.474Z,28.60
2017-06-29T06:28:15.938Z,27.50
2017-06-29T06:30:43.379Z,25.70
2017-06-29T06:33:10.931Z,26.70
2017-06-29T06:35:38.397Z,25.23
2017-06-29T06:38:06.105Z,24.35
2017-06-29T06:40:33.592Z,22.13
2017-06-29T06:43:01.229Z,22.87
2017-06-29T06:45:29.491Z,20.92
2017-06-29T06:47:57.130Z,19.90
2017-06-29T06:50:24.576Z,19.85
2017-06-29T06:52:52.040Z,19.98
2017-06-29T06:55:19.530Z,22.02
2017-06-29T06:57:47.133Z,21.10
2017-06-29T07:00:14.747Z,20.65
2017-06-29T07:02:42.192Z,21.75
2017-06-29T07:05:09.723Z,19.60
2017-06-29T07:07:37.222Z,18.77
2017-06-29T07:10:06.451Z,18.27
2017-06-29T07:12:34.021Z,17.55
2017-06-29T07:15:01.509Z,16.92
2017-06-29T07:17:28.958Z,17.67
2017-06-29T07:19:56.420Z,15.93
2017-06-29T07:22:23.873Z,16.70
2017-06-29T07:24:51.310Z,17.00
2017-06-29T07:27:18.747Z,17.00
2017-06-29T07:29:46.371Z,15.52
2017-06-29T07:32:14.591Z,15.77
2017-06-29T07:34:42.018Z,14.05
2017-06-29T07:37:10.243Z,14.00
2017-06-29T07:39:37.710Z,13.77
2017-06-29T07:42:05.186Z,13.13
2017-06-29T07:44:32.645Z,14.00
2017-06-29T07:47:00.190Z,15.07
2017-06-29T07:49:27.655Z,15.25
2017-06-29T07:51:55.267Z,14.73
2017-06-29T07:54:22.682Z,14.75
2017-06-29T07:56:50.933Z,13.55
2017-06-29T07:59:18.366Z,13.65
2017-06-29T08:01:45.819Z,13.93
2017-06-29T08:04:13.330Z,13.35
2017-06-29T08:06:41.567Z,15.23
2017-06-29T08:09:09.249Z,15.23
2017-06-29T08:11:36.685Z,15.10
2017-06-29T08:14:04.126Z,13.80
2017-06-29T08:16:31.613Z,13.30
2017-06-29T08:18:59.051Z,14.32
2017-06-29T08:21:26.511Z,13.93
2017-06-29T08:23:54.068Z,16.17
2017-06-29T08:26:21.525Z,16.83
2017-06-29T08:28:48.974Z,17.60
2017-06-29T08:31:16.443Z,17.42
2017-06-29T08:33:44.069Z,17.55
2017-06-29T08:36:12.271Z,18.53
2017-06-29T08:38:39.714Z,16.37
2017-06-29T08:41:07.155Z,17.67
2017-06-29T08:43:34.715Z,16.10
2017-06-29T08:46:02.155Z,15.33
2017-06-29T08:48:29.590Z,13.90
2017-06-29T08:50:57.850Z,15.60
2017-06-29T08:53:25.355Z,15.75
2017-06-29T08:55:52.819Z,18.20
2017-06-29T08:58:20.250Z,16.95
2017-06-29T09:00:47.828Z,16.50
2017-06-29T09:03:15.338Z,15.13
2017-06-29T09:05:42.769Z,14.90
2017-06-29T09:08:10.219Z,12.60
2017-06-29T09:10:37.686Z,12.65
2017-06-29T09:13:05.950Z,12.40
2017-06-29T09:15:33.488Z,12.37
2017-06-29T09:18:00.963Z,12.07
2017-06-29T09:20:28.426Z,12.10
2017-06-29T09:22:55.862Z,12.90
2017-06-29T09:25:24.172Z,12.18
2017-06-29T09:27:51.638Z,12.85
2017-06-29T09:30:19.110Z,12.80
2017-06-29T09:32:47.526Z,12.57
2017-06-29T09:35:14.998Z,14.13
2017-06-29T09:37:42.454Z,14.05
2017-06-29T09:40:09.922Z,12.60
2017-06-29T09:42:37.367Z,14.60
2017-06-29T09:45:04.843Z,11.20
2017-06-29T09:47:32.319Z,10.60
2017-06-29T09:50:00.570Z,10.80
2017-06-29T09:52:28.027Z,9.80
2017-06-29T09:54:55.646Z,9.88
2017-06-29T09:57:23.173Z,9.88
2017-06-29T09:59:51.394Z,10.15
2017-06-29T10:02:18.835Z,10.63
2017-06-29T10:04:46.307Z,10.07
2017-06-29T10:07:13.758Z,11.00
2017-06-29T10:09:41.267Z,9.93
2017-06-29T10:12:09.475Z,9.43
2017-06-29T10:14:36.914Z,9.50
2017-06-29T10:17:04.504Z,10.60
2017-06-29T10:19:32.014Z,10.30
2017-06-29T10:21:59.531Z,8.52
2017-06-29T10:24:26.961Z,7.40
2017-06-29T10:26:54.408Z,7.03
2017-06-29T10:29:21.946Z,6.53
2017-06-29T10:31:50.265Z,7.22
2017-06-29T10:34:17.690Z,7.15
2017-06-29T10:36:45.278Z,8.05
2017-06-29T10:39:12.897Z,7.57
2017-06-29T10:41:40.430Z,7.12
2017-06-29T10:44:07.986Z,8.00
2017-06-29T10:46:35.538Z,7.18
2017-06-29T10:49:02.994Z,7.65
2017-06-29T10:51:30.594Z,8.20
2017-06-29T10:53:58.827Z,7.15
2017-06-29T10:56:26.265Z,8.18
2017-06-29T10:58:53.752Z,8.10
2017-06-29T11:01:21.401Z,7.77
2017-06-29T11:03:48.863Z,8.10
2017-06-29T11:06:16.350Z,7.75
2017-06-29T11:08:44.614Z,8.13
2017-06-29T11:11:12.062Z,8.70
2017-06-29T11:13:39.546Z,10.00
2017-06-29T11:16:07.921Z,10.75
2017-06-29T11:18:35.427Z,9.18
2017-06-29T11:21:02.930Z,11.38
2017-06-29T11:23:31.187Z,10.77
2017-06-29T11:25:58.744Z,10.90
2017-06-29T11:28:26.295Z,11.10
2017-06-29T11:30:53.730Z,10.63
2017-06-29T11:33:21.171Z,9.95
2017-06-29T11:35:48.635Z,10.43
2017-06-29T11:38:16.075Z,10.85
2017-06-29T11:40:43.667Z,11.60
2017-06-29T11:43:11.139Z,12.27
2017-06-29T11:45:38.582Z,11.80
2017-06-29T11:48:06.027Z,11.05
2017-06-29T11:50:33.466Z,12.98
2017-06-29T11:53:01.029Z,12.70
2017-06-29T11:55:28.507Z,12.68
2017-06-29T11:57:55.968Z,12.05
2017-06-29T12:00:23.443Z,13.65
2017-06-29T12:02:51.065Z,12.55
2017-06-29T12:05:18.618Z,13.18
2017-06-29T12:07:46.078Z,13.00
2017-06-29T12:10:13.525Z,12.50
2017-06-29T12:12:41.030Z,12.45
2017-06-29T12:15:08.572Z,14.10
2017-06-29T12:17:36.140Z,13.10
2017-06-29T12:20:03.606Z,11.70
2017-06-29T12:22:31.040Z,11.50
2017-06-29T12:24:59.048Z,10.02
2017-06-29T12:27:27.247Z,8.98
2017-06-29T12:29:54.678Z,8.25
2017-06-29T12:32:22.945Z,10.40
2017-06-29T12:34:50.551Z,10.20
2017-06-29T12:37:18.003Z,9.37
2017-06-29T12:39:45.462Z,8.20
2017-06-29T12:42:13.001Z,7.60
2017-06-29T12:44:40.461Z,7.80
2017-06-29T12:47:07.983Z,7.55
2017-06-29T12:49:36.246Z,8.45
2017-06-29T12:52:03.707Z,9.48
2017-06-29T12:54:31.142Z,8.77
2017-06-29T12:56:58.672Z,9.90
2017-06-29T12:59:26.155Z,9.87
2017-06-29T13:01:53.593Z,8.25
2017-06-29T13:04:21.153Z,8.23
2017-06-29T13:06:48.647Z,7.10
2017-06-29T13:09:16.126Z,7.30
2017-06-29T13:11:43.583Z,6.47
2017-06-29T13:14:11.816Z,5.80
2017-06-29T13:16:39.239Z,8.00
2017-06-29T13:19:06.738Z,5.80
2017-06-29T13:21:34.181Z,7.32
2017-06-29T13:24:01.638Z,6.70
2017-06-29T13:26:29.216Z,7.15
2017-06-29T13:28:56.900Z,6.85
2017-06-29T13:31:24.364Z,7.55
2017-06-29T13:33:52.598Z,7.10
2017-06-29T13:36:20.070Z,9.10
2017-06-29T13:38:47.606Z,7.50
2017-06-29T13:41:15.070Z,6.43
2017-06-29T13:43:42.602Z,6.20
2017-06-29T13:46:10.043Z,7.15
2017-06-29T13:48:37.488Z,6.55
2017-06-29T13:51:05.037Z,5.12
2017-06-29T13:53:33.394Z,5.22
2017-06-29T13:56:00.853Z,6.37
2017-06-29T13:58:28.382Z,6.03
2017-06-29T14:00:55.866Z,6.22
2017-06-29T14:03:23.480Z,6.70
2017-06-29T14:05:50.987Z,7.15
2017-06-29T14:08:18.414Z,6.70
2017-06-29T14:10:45.956Z,7.40
2017-06-29T14:13:13.446Z,6.97
2017-06-29T14:15:40.972Z,5.25
2017-06-29T14:18:08.486Z,5.72
2017-06-29T14:20:35.909Z,6.50
2017-06-29T14:23:03.354Z,6.40
2017-06-29T14:25:30.846Z,6.62
2017-06-29T14:27:59.055Z,6.97
2017-06-29T14:30:26.534Z,7.50
2017-06-29T14:32:54.084Z,7.20
2017-06-29T14:35:21.559Z,8.25
2017-06-29T14:37:49.030Z,7.65
2017-06-29T14:40:16.542Z,8.40
2017-06-29T14:42:43.959Z,7.68
2017-06-29T14:45:12.290Z,7.68
2017-06-29T14:47:39.750Z,8.82
2017-06-29T14:50:07.242Z,8.52
2017-06-29T14:52:34.695Z,7.78
2017-06-29T14:55:02.234Z,9.07
2017-06-29T14:57:29.682Z,8.40
2017-06-29T14:59:57.137Z,9.10
2017-06-29T15:02:24.663Z,8.70
2017-06-29T15:04:52.879Z,8.80
2017-06-29T15:07:20.362Z,10.10
2017-06-29T15:09:48.643Z,8.50
2017-06-29T15:12:16.100Z,10.00
2017-06-29T15:14:44.299Z,8.50
2017-06-29T15:17:11.797Z,10.05
2017-06-29T15:19:39.295Z,11.00
2017-06-29T15:22:07.552Z,10.43
2017-06-29T15:24:34.990Z,10.32
2017-06-29T15:27:02.455Z,9.60
2017-06-29T15:29:30.081Z,9.93
2017-06-29T15:31:57.671Z,11.20
2017-06-29T15:34:25.298Z,10.98
2017-06-29T15:36:52.778Z,10.60
2017-06-29T15:39:20.272Z,10.90
2017-06-29T15:41:48.552Z,10.35
2017-06-29T15:44:16.802Z,9.40
2017-06-29T15:46:44.358Z,10.60
2017-06-29T15:49:11.918Z,11.05
2017-06-29T15:51:39.376Z,10.65
2017-06-29T15:54:06.806Z,11.27
2017-06-29T15:56:34.278Z,10.40
2017-06-29T15:59:01.734Z,11.23
2017-06-29T16:01:29.303Z,11.30
2017-06-29T16:03:56.746Z,10.00
2017-06-29T16:06:24.196Z,10.55
2017-06-29T16:08:51.655Z,11.20
2017-06-29T16:11:19.186Z,11.40
2017-06-29T16:13:46.614Z,10.83
2017-06-29T16:16:14.114Z,12.18
2017-06-29T16:18:41.559Z,10.80
2017-06-29T16:21:09.016Z,11.30
2017-06-29T16:23:36.495Z,10.25
2017-06-29T16:26:03.960Z,10.93
2017-06-29T16:28:31.403Z,10.93
2017-06-29T16:30:58.867Z,12.10
2017-06-29T16:33:26.399Z,12.15
2017-06-29T16:35:53.915Z,11.35
2017-06-29T16:38:22.146Z,11.10
2017-06-29T16:40:49.942Z,11.80
2017-06-29T16:43:17.506Z,11.80
2017-06-29T16:45:44.975Z,13.35
2017-06-29T16:48:13.180Z,13.80
2017-06-29T16:50:40.632Z,14.57
2017-06-29T16:53:08.106Z,14.50
2017-06-29T16:55:35.563Z,15.75
2017-06-29T16:58:03.036Z,15.77
2017-06-29T17:00:30.508Z,16.30
2017-06-29T17:02:57.906Z,16.37
2017-06-29T17:05:25.402Z,15.30
2017-06-29T17:07:52.839Z,17.50
2017-06-29T17:10:20.295Z,17.63
2017-06-29T17:12:47.780Z,18.15
2017-06-29T17:15:15.243Z,17.80
2017-06-29T17:17:42.686Z,18.80
2017-06-29T17:20:10.156Z,19.08
2017-06-29T17:22:37.722Z,19.25
2017-06-29T17:25:05.171Z,21.80
2017-06-29T17:27:32.730Z,21.08
2017-06-29T17:30:00.316Z,21.42
2017-06-29T17:32:28.574Z,21.62
2017-06-29T17:34:56.110Z,21.93
2017-06-29T17:37:23.560Z,22.20
2017-06-29T17:39:51.098Z,23.20
2017-06-29T17:42:18.533Z,23.25
2017-06-29T17:44:46.010Z,23.00
2017-06-29T17:47:13.468Z,24.12
2017-06-29T17:49:40.894Z,24.12
2017-06-29T17:52:08.335Z,25.23
2017-06-29T17:54:35.784Z,24.25
2017-06-29T17:57:03.284Z,25.98
2017-06-29T17:59:30.747Z,23.77
2017-06-29T18:01:58.219Z,24.47
2017-06-29T18:04:25.671Z,26.08
2017-06-29T18:06:53.134Z,25.33
2017-06-29T18:09:20.586Z,24.80
2017-06-29T18:11:48.051Z,25.17
2017-06-29T18:14:15.491Z,24.58
2017-06-29T18:16:43.044Z,24.63
2017-06-29T18:19:10.486Z,24.85
2017-06-29T18:21:38.006Z,25.88
2017-06-29T18:24:05.471Z,25.13
2017-06-29T18:26:32.903Z,24.83
2017-06-29T18:29:00.360Z,27.80
2017-06-29T18:31:27.798Z,25.85
2017-06-29T18:33:55.331Z,26.12
2017-06-29T18:36:22.825Z,25.83
2017-06-29T18:38:50.270Z,26.95
2017-06-29T18:41:17.702Z,26.48
2017-06-29T18:43:45.218Z,26.92
2017-06-29T18:46:12.755Z,27.30
2017-06-29T18:48:40.226Z,25.02
2017-06-29T18:51:07.777Z,26.87
2017-06-29T18:53:35.207Z,27.75
2017-06-29T18:56:02.666Z,28.35
2017-06-29T18:58:30.142Z,28.30
2017-06-29T19:00:57.618Z,27.55
2017-06-29T19:03:25.156Z,26.08
2017-06-29T19:05:52.682Z,27.00
2017-06-29T19:08:20.141Z,25.92
2017-06-29T19:10:47.591Z,25.93
2017-06-29T19:13:15.034Z,24.87
2017-06-29T19:15:42.490Z,21.42
2017-06-29T19:18:09.967Z,21.83
2017-06-29T19:20:37.427Z,21.20
2017-06-29T19:23:04.886Z,22.52
2017-06-29T19:25:32.354Z,23.90
2017-06-29T19:27:59.814Z,25.40
2017-06-29T19:30:27.249Z,24.80
2017-06-29T19:32:54.707Z,24.85
2017-06-29T19:35:22.158Z,25.90
2017-06-29T19:37:49.646Z,24.40
2017-06-29T19:40:17.090Z,23.33
2017-06-29T19:42:44.535Z,21.33
2017-06-29T19:45:12.047Z,20.30
2017-06-29T19:47:40.306Z,20.80
2017-06-29T19:50:07.749Z,18.37
2017-06-29T19:52:35.271Z,20.75
2017-06-29T19:55:02.698Z,20.20
2017-06-29T19:57:30.906Z,19.75
2017-06-29T19:59:58.361Z,19.20
2017-06-29T20:02:25.834Z,18.55
2017-06-29T20:04:53.302Z,20.77
2017-06-29T20:07:20.794Z,20.50
2017-06-29T20:09:48.990Z,18.90
2017-06-29T20:12:16.500Z,16.35
2017-06-29T20:14:43.990Z,16.57
2017-06-29T20:17:11.457Z,11.85
2017-06-29T20:19:38.895Z,9.18
2017-06-29T20:22:07.209Z,8.60
2017-06-29T20:24:34.698Z,7.32
2017-06-29T20:27:02.140Z,7.40
2017-06-29T20:29:29.611Z,6.95
2017-06-29T20:31:57.042Z,7.50
2017-06-29T20:34:24.503Z,7.03
2017-06-29T20:36:51.962Z,6.40
2017-06-29T20:39:19.388Z,7.60
2017-06-29T20:41:46.958Z,7.70
2017-06-29T20:44:14.458Z,7.62
2017-06-29T20:46:41.918Z,8.10
2017-06-29T20:49:09.389Z,9.40
2017-06-29T20:51:36.911Z,8.43
2017-06-29T20:54:04.356Z,8.37
2017-06-29T20:56:31.851Z,8.30
2017-06-29T20:59:00.124Z,8.55
2017-06-29T21:01:27.561Z,9.00
2017-06-29T21:03:55.010Z,8.90
2017-06-29T21:06:22.467Z,9.63
2017-06-29T21:08:49.946Z,9.48
2017-06-29T21:11:18.247Z,10.32
2017-06-29T21:13:45.701Z,11.90
2017-06-29T21:16:13.911Z,11.00
2017-06-29T21:18:41.607Z,11.12
2017-06-29T21:21:09.063Z,12.60
2017-06-29T21:23:36.678Z,11.50
2017-06-29T21:26:04.111Z,12.10
2017-06-29T21:28:31.571Z,12.73
2017-06-29T21:30:59.774Z,11.00
2017-06-29T21:33:27.327Z,12.73
2017-06-29T21:35:54.746Z,11.95
2017-06-29T21:38:22.958Z,12.20
2017-06-29T21:40:50.409Z,10.70
2017-06-29T21:43:17.851Z,11.55
2017-06-29T21:45:45.410Z,11.45
2017-06-29T21:48:12.954Z,9.90
2017-06-29T21:50:40.474Z,9.27
2017-06-29T21:53:07.919Z,10.90
2017-06-29T21:55:35.393Z,10.30
2017-06-29T21:58:03.019Z,11.35
2017-06-29T22:00:30.447Z,10.43
2017-06-29T22:02:57.946Z,10.50
2017-06-29T22:05:25.405Z,11.30
2017-06-29T22:07:52.872Z,10.30
2017-06-29T22:10:20.318Z,9.40
2017-06-29T22:12:47.875Z,9.43
2017-06-29T22:15:15.314Z,10.38
2017-06-29T22:17:42.751Z,10.60
2017-06-29T22:20:10.246Z,11.73
2017-06-29T22:22:37.717Z,12.02
2017-06-29T22:25:05.286Z,11.95
2017-06-29T22:27:32.746Z,11.48
2017-06-29T22:30:00.790Z,12.40
2017-06-29T22:32:29.553Z,13.30
2017-06-29T22:34:57.521Z,14.20
2017-06-29T22:37:25.123Z,15.45
2017-06-29T22:39:52.555Z,16.55
2017-06-29T22:42:20.011Z,17.52
2017-06-29T22:44:47.474Z,18.00
2017-06-29T22:47:15.006Z,17.27
2017-06-29T22:49:42.518Z,16.02
2017-06-29T22:52:09.958Z,15.52
2017-06-29T22:54:37.400Z,15.18
2017-06-29T22:57:04.995Z,17.27
2017-06-29T22:59:33.420Z,16.80
2017-06-29T23:02:00.874Z,15.70
2017-06-29T23:04:28.359Z,17.00
2017-06-29T23:06:55.859Z,16.27
2017-06-29T23:09:23.382Z,17.23
2017-06-29T23:11:50.824Z,19.27
2017-06-29T23:14:18.274Z,20.63
2017-06-29T23:16:45.740Z,19.48
2017-06-29T23:19:13.198Z,20.25
2017-06-29T23:21:40.658Z,20.67
2017-06-29T23:24:08.105Z,20.08
2017-06-29T23:26:35.676Z,22.27
2017-06-29T23:29:03.119Z,22.30
2017-06-29T23:31:30.583Z,21.52
2017-06-29T23:33:58.034Z,21.90
2017-06-29T23:36:25.494Z,22.08
2017-06-29T23:38:52.939Z,22.75
2017-06-29T23:41:20.411Z,21.27
2017-06-29T23:43:47.893Z,21.33
2017-06-29T23:46:16.113Z,20.37
2017-06-29T23:48:43.598Z,20.67
2017-06-29T23:51:11.146Z,21.40
2017-06-29T23:53:38.614Z,21.25
2017-06-29T23:56:06.078Z,20.65
2017-06-29T23:58:33.630Z,21.70
